Minot International Airport
KMOT : now visible

Airfield :











YOU CAN JOIN US ON...

 
LOGIN :

Register | Disclaimer

   EN    FR    IT 

 









Legend :    VFR   Marginal VFR   IFR   Intensive IFR   Very Intensive IFR
Visi :
Ceiling :
>= 8 km
>= 3000ft
5 to 8 km
1000 to 3000 ft
1500m to 5 km
500 to 1000 ft
800 to 1500m
200 to 500 ft
< 800m
< 200 ft
Symbols :   Thunderstorms  Fog  Heavy snow  Heavy precipitations  Wind > 20 kt







- Airport Elevation : 1716 ft
- IATA code : MOT


KMOT - Minot International

CURRENT METAR :
  • 191154Z 36011KT 10SM CLR 04/M02 A3009 RMK AO2 SLP203 T00391017 10067 20039 53011

EXPIRED METARs :
  • 191054Z AUTO 35011KT 10SM CLR 04/M02 A3008 RMK AO2 SLP197 T00391017
  • 190954Z AUTO 36012KT 10SM CLR 04/M02 A3006 RMK AO2 SLP190 T00441017

TAF KMOT
Valid from the 19 at 12:00 until the 20 at 12:00 UTC


191139Z 1912/2012 36010KT P6SM SCT080 OVC200
FM191500 02011KT P6SM BKN200
FM200200 02005KT P6SM SCT250
KZMP FIR / North America



MET'MAP, your aeronautical weather chart ! - Copyright ORBIFLY December 2007 - Disclaimer

ORBIFLY MET'MAP TEAM :

Programming & Development : Alexandra Zaïnal
Concept & Development : Baudouin d'Aumeries
Co-Development & Prog : Marc-Olivier Méhu
Technical & hardware support : Manuel Goepfert

Contact : metmap@orbifly.com




SOURCES & CREDITS :

   NOAA       Earth
Advisory